sensor_id;sensor_type;location;lat;lon;timestamp;P1;durP1;ratioP1;P2;durP2;ratioP2
19043;SDS011;9654;52.302;8.120;2022-08-11T00:00:59;3.83;;;1.87;;
19043;SDS011;9654;52.302;8.120;2022-08-11T00:03:31;3.33;;;1.83;;
19043;SDS011;9654;52.302;8.120;2022-08-11T00:05:59;3.07;;;2.20;;
19043;SDS011;9654;52.302;8.120;2022-08-11T00:08:29;2.10;;;2.00;;
19043;SDS011;9654;52.302;8.120;2022-08-11T00:10:58;2.73;;;2.13;;
19043;SDS011;9654;52.302;8.120;2022-08-11T00:13:31;2.00;;;1.90;;
19043;SDS011;9654;52.302;8.120;2022-08-11T00:16:00;2.73;;;2.10;;
19043;SDS011;9654;52.302;8.120;2022-08-11T00:18:27;4.53;;;2.07;;
19043;SDS011;9654;52.302;8.120;2022-08-11T00:20:56;2.20;;;2.00;;
19043;SDS011;9654;52.302;8.120;2022-08-11T00:23:25;2.20;;;1.90;;
19043;SDS011;9654;52.302;8.120;2022-08-11T00:25:54;4.23;;;2.70;;
19043;SDS011;9654;52.302;8.120;2022-08-11T00:28:22;2.23;;;2.00;;
19043;SDS011;9654;52.302;8.120;2022-08-11T00:30:51;5.00;;;1.87;;
19043;SDS011;9654;52.302;8.120;2022-08-11T00:33:19;2.17;;;1.97;;
19043;SDS011;9654;52.302;8.120;2022-08-11T00:35:49;2.33;;;2.20;;
19043;SDS011;9654;52.302;8.120;2022-08-11T00:38:17;5.00;;;2.30;;
19043;SDS011;9654;52.302;8.120;2022-08-11T00:40:51;5.60;;;2.30;;
19043;SDS011;9654;52.302;8.120;2022-08-11T00:43:31;4.67;;;2.07;;
19043;SDS011;9654;52.302;8.120;2022-08-11T00:46:14;2.13;;;1.53;;
19043;SDS011;9654;52.302;8.120;2022-08-11T00:48:49;2.40;;;2.20;;
19043;SDS011;9654;52.302;8.120;2022-08-11T00:51:41;2.07;;;1.93;;
19043;SDS011;9654;52.302;8.120;2022-08-11T00:54:25;2.93;;;2.10;;
19043;SDS011;9654;52.302;8.120;2022-08-11T01:00:12;2.83;;;2.30;;
19043;SDS011;9654;52.302;8.120;2022-08-11T01:02:44;4.70;;;2.60;;
19043;SDS011;9654;52.302;8.120;2022-08-11T01:08:18;2.47;;;2.27;;
19043;SDS011;9654;52.302;8.120;2022-08-11T01:11:33;2.67;;;2.47;;
19043;SDS011;9654;52.302;8.120;2022-08-11T01:20:35;4.93;;;2.57;;
19043;SDS011;9654;52.302;8.120;2022-08-11T01:29:58;3.37;;;2.47;;
19043;SDS011;9654;52.302;8.120;2022-08-11T01:35:59;5.23;;;2.50;;
19043;SDS011;9654;52.302;8.120;2022-08-11T01:39:09;5.27;;;3.03;;
19043;SDS011;9654;52.302;8.120;2022-08-11T01:41:55;2.73;;;2.53;;
19043;SDS011;9654;52.302;8.120;2022-08-11T01:45:13;2.63;;;2.40;;
19043;SDS011;9654;52.302;8.120;2022-08-11T01:47:55;2.80;;;2.47;;
19043;SDS011;9654;52.302;8.120;2022-08-11T01:53:32;2.73;;;2.40;;
19043;SDS011;9654;52.302;8.120;2022-08-11T01:56:12;3.50;;;2.80;;
19043;SDS011;9654;52.302;8.120;2022-08-11T01:58:55;4.70;;;2.53;;
19043;SDS011;9654;52.302;8.120;2022-08-11T02:01:36;5.30;;;2.50;;
19043;SDS011;9654;52.302;8.120;2022-08-11T02:04:14;2.43;;;2.33;;
19043;SDS011;9654;52.302;8.120;2022-08-11T02:06:52;4.20;;;2.90;;
19043;SDS011;9654;52.302;8.120;2022-08-11T02:09:37;3.43;;;2.80;;
19043;SDS011;9654;52.302;8.120;2022-08-11T02:12:19;3.33;;;2.60;;
19043;SDS011;9654;52.302;8.120;2022-08-11T02:14:58;2.73;;;2.53;;
19043;SDS011;9654;52.302;8.120;2022-08-11T02:17:36;3.57;;;2.70;;
19043;SDS011;9654;52.302;8.120;2022-08-11T02:20:15;3.27;;;2.90;;
19043;SDS011;9654;52.302;8.120;2022-08-11T02:23:08;2.50;;;2.40;;
19043;SDS011;9654;52.302;8.120;2022-08-11T02:26:02;2.90;;;2.70;;
19043;SDS011;9654;52.302;8.120;2022-08-11T02:28:34;4.40;;;2.93;;
19043;SDS011;9654;52.302;8.120;2022-08-11T02:31:12;6.83;;;3.30;;
19043;SDS011;9654;52.302;8.120;2022-08-11T02:34:04;3.67;;;2.90;;
19043;SDS011;9654;52.302;8.120;2022-08-11T02:36:41;6.17;;;3.17;;
19043;SDS011;9654;52.302;8.120;2022-08-11T02:39:16;5.93;;;3.50;;
19043;SDS011;9654;52.302;8.120;2022-08-11T02:41:48;3.40;;;3.10;;
19043;SDS011;9654;52.302;8.120;2022-08-11T02:44:39;5.07;;;3.10;;
19043;SDS011;9654;52.302;8.120;2022-08-11T02:47:17;6.27;;;3.77;;
19043;SDS011;9654;52.302;8.120;2022-08-11T02:50:02;4.00;;;3.27;;
19043;SDS011;9654;52.302;8.120;2022-08-11T02:52:41;5.90;;;2.93;;
19043;SDS011;9654;52.302;8.120;2022-08-11T02:55:17;4.77;;;3.37;;
19043;SDS011;9654;52.302;8.120;2022-08-11T02:57:49;6.37;;;3.60;;
19043;SDS011;9654;52.302;8.120;2022-08-11T03:00:19;3.37;;;3.00;;
19043;SDS011;9654;52.302;8.120;2022-08-11T03:02:49;5.60;;;3.30;;
19043;SDS011;9654;52.302;8.120;2022-08-11T03:05:44;3.60;;;3.30;;
19043;SDS011;9654;52.302;8.120;2022-08-11T03:08:22;5.23;;;3.53;;
19043;SDS011;9654;52.302;8.120;2022-08-11T03:11:00;4.60;;;3.40;;
19043;SDS011;9654;52.302;8.120;2022-08-11T03:13:56;8.17;;;3.93;;
19043;SDS011;9654;52.302;8.120;2022-08-11T03:16:53;4.07;;;3.67;;
19043;SDS011;9654;52.302;8.120;2022-08-11T03:19:27;4.63;;;3.33;;
19043;SDS011;9654;52.302;8.120;2022-08-11T03:22:02;4.30;;;3.63;;
19043;SDS011;9654;52.302;8.120;2022-08-11T03:24:41;6.77;;;4.10;;
19043;SDS011;9654;52.302;8.120;2022-08-11T03:27:23;6.00;;;3.63;;
19043;SDS011;9654;52.302;8.120;2022-08-11T03:30:06;5.73;;;4.17;;
19043;SDS011;9654;52.302;8.120;2022-08-11T03:32:41;6.13;;;4.17;;
19043;SDS011;9654;52.302;8.120;2022-08-11T03:35:31;5.93;;;3.60;;
19043;SDS011;9654;52.302;8.120;2022-08-11T03:38:05;5.97;;;3.77;;
19043;SDS011;9654;52.302;8.120;2022-08-11T03:40:42;4.27;;;3.87;;
19043;SDS011;9654;52.302;8.120;2022-08-11T03:43:50;4.93;;;3.60;;
19043;SDS011;9654;52.302;8.120;2022-08-11T03:46:26;8.13;;;3.83;;
19043;SDS011;9654;52.302;8.120;2022-08-11T03:49:05;5.73;;;3.90;;
19043;SDS011;9654;52.302;8.120;2022-08-11T03:51:44;3.97;;;3.57;;
19043;SDS011;9654;52.302;8.120;2022-08-11T03:54:19;5.57;;;4.07;;
19043;SDS011;9654;52.302;8.120;2022-08-11T04:00:13;5.63;;;4.10;;
19043;SDS011;9654;52.302;8.120;2022-08-11T04:03:21;7.83;;;4.10;;
19043;SDS011;9654;52.302;8.120;2022-08-11T04:06:35;7.40;;;4.20;;
19043;SDS011;9654;52.302;8.120;2022-08-11T04:15:59;6.20;;;4.87;;
19043;SDS011;9654;52.302;8.120;2022-08-11T04:18:49;9.70;;;4.90;;
19043;SDS011;9654;52.302;8.120;2022-08-11T04:24:53;6.93;;;4.57;;
19043;SDS011;9654;52.302;8.120;2022-08-11T04:27:34;5.37;;;4.60;;
19043;SDS011;9654;52.302;8.120;2022-08-11T04:30:33;6.00;;;4.50;;
19043;SDS011;9654;52.302;8.120;2022-08-11T04:33:33;4.70;;;4.23;;
19043;SDS011;9654;52.302;8.120;2022-08-11T04:36:24;4.70;;;4.30;;
19043;SDS011;9654;52.302;8.120;2022-08-11T04:39:49;12.23;;;4.03;;
19043;SDS011;9654;52.302;8.120;2022-08-11T04:45:51;7.20;;;4.23;;
19043;SDS011;9654;52.302;8.120;2022-08-11T04:48:51;7.57;;;4.30;;
19043;SDS011;9654;52.302;8.120;2022-08-11T04:52:01;4.20;;;3.80;;
19043;SDS011;9654;52.302;8.120;2022-08-11T04:54:57;4.43;;;4.03;;
19043;SDS011;9654;52.302;8.120;2022-08-11T04:57:58;4.73;;;4.07;;
19043;SDS011;9654;52.302;8.120;2022-08-11T05:00:55;5.07;;;3.87;;
19043;SDS011;9654;52.302;8.120;2022-08-11T05:10:27;7.67;;;4.33;;
19043;SDS011;9654;52.302;8.120;2022-08-11T05:13:05;5.57;;;4.40;;
19043;SDS011;9654;52.302;8.120;2022-08-11T05:15:48;6.50;;;4.83;;
19043;SDS011;9654;52.302;8.120;2022-08-11T05:18:35;5.80;;;4.57;;
19043;SDS011;9654;52.302;8.120;2022-08-11T05:21:28;6.43;;;4.80;;
19043;SDS011;9654;52.302;8.120;2022-08-11T05:24:16;8.40;;;4.40;;
19043;SDS011;9654;52.302;8.120;2022-08-11T05:27:06;9.03;;;5.27;;
19043;SDS011;9654;52.302;8.120;2022-08-11T05:29:55;5.10;;;4.60;;
19043;SDS011;9654;52.302;8.120;2022-08-11T05:32:45;9.13;;;5.47;;
19043;SDS011;9654;52.302;8.120;2022-08-11T05:35:47;7.57;;;4.60;;
19043;SDS011;9654;52.302;8.120;2022-08-11T05:38:17;6.50;;;4.40;;
19043;SDS011;9654;52.302;8.120;2022-08-11T05:41:05;6.10;;;4.63;;
19043;SDS011;9654;52.302;8.120;2022-08-11T05:43:52;7.87;;;4.47;;
19043;SDS011;9654;52.302;8.120;2022-08-11T05:46:39;7.00;;;4.30;;
19043;SDS011;9654;52.302;8.120;2022-08-11T05:49:27;5.90;;;4.80;;
19043;SDS011;9654;52.302;8.120;2022-08-11T05:52:13;4.20;;;3.80;;
19043;SDS011;9654;52.302;8.120;2022-08-11T05:55:00;7.53;;;4.37;;
19043;SDS011;9654;52.302;8.120;2022-08-11T05:57:46;6.73;;;4.67;;
19043;SDS011;9654;52.302;8.120;2022-08-11T06:00:15;8.27;;;4.50;;
19043;SDS011;9654;52.302;8.120;2022-08-11T06:02:45;4.93;;;4.10;;
19043;SDS011;9654;52.302;8.120;2022-08-11T06:05:16;8.53;;;4.50;;
19043;SDS011;9654;52.302;8.120;2022-08-11T06:07:43;8.07;;;4.60;;
19043;SDS011;9654;52.302;8.120;2022-08-11T06:10:11;10.80;;;4.17;;
19043;SDS011;9654;52.302;8.120;2022-08-11T06:12:38;5.23;;;4.20;;
19043;SDS011;9654;52.302;8.120;2022-08-11T06:15:08;4.33;;;3.50;;
19043;SDS011;9654;52.302;8.120;2022-08-11T06:17:43;9.20;;;4.67;;
19043;SDS011;9654;52.302;8.120;2022-08-11T06:20:12;7.37;;;4.40;;
19043;SDS011;9654;52.302;8.120;2022-08-11T06:22:40;6.33;;;4.07;;
19043;SDS011;9654;52.302;8.120;2022-08-11T06:25:09;10.87;;;4.30;;
19043;SDS011;9654;52.302;8.120;2022-08-11T06:27:37;4.40;;;4.10;;
19043;SDS011;9654;52.302;8.120;2022-08-11T06:30:07;3.50;;;3.20;;
19043;SDS011;9654;52.302;8.120;2022-08-11T06:32:39;5.93;;;2.83;;
19043;SDS011;9654;52.302;8.120;2022-08-11T06:35:16;4.37;;;2.83;;
19043;SDS011;9654;52.302;8.120;2022-08-11T06:37:52;6.97;;;3.10;;
19043;SDS011;9654;52.302;8.120;2022-08-11T06:40:33;3.90;;;2.50;;
19043;SDS011;9654;52.302;8.120;2022-08-11T06:43:04;3.90;;;3.00;;
19043;SDS011;9654;52.302;8.120;2022-08-11T06:45:39;3.00;;;2.77;;
19043;SDS011;9654;52.302;8.120;2022-08-11T06:48:14;4.03;;;2.67;;
19043;SDS011;9654;52.302;8.120;2022-08-11T06:50:48;3.57;;;3.07;;
19043;SDS011;9654;52.302;8.120;2022-08-11T06:53:33;2.90;;;2.63;;
19043;SDS011;9654;52.302;8.120;2022-08-11T06:56:03;4.80;;;3.03;;
19043;SDS011;9654;52.302;8.120;2022-08-11T06:58:49;5.40;;;2.43;;
19043;SDS011;9654;52.302;8.120;2022-08-11T07:01:36;2.97;;;2.67;;
19043;SDS011;9654;52.302;8.120;2022-08-11T07:04:10;2.60;;;2.40;;
19043;SDS011;9654;52.302;8.120;2022-08-11T07:06:44;3.23;;;2.20;;
19043;SDS011;9654;52.302;8.120;2022-08-11T07:09:47;2.63;;;2.13;;
19043;SDS011;9654;52.302;8.120;2022-08-11T07:12:57;2.47;;;2.20;;
19043;SDS011;9654;52.302;8.120;2022-08-11T07:15:43;7.13;;;2.37;;
19043;SDS011;9654;52.302;8.120;2022-08-11T07:18:19;3.20;;;2.30;;
19043;SDS011;9654;52.302;8.120;2022-08-11T07:21:06;3.77;;;1.87;;
19043;SDS011;9654;52.302;8.120;2022-08-11T07:23:51;5.03;;;2.03;;
19043;SDS011;9654;52.302;8.120;2022-08-11T07:26:39;3.20;;;2.30;;
19043;SDS011;9654;52.302;8.120;2022-08-11T07:29:26;2.00;;;1.80;;
19043;SDS011;9654;52.302;8.120;2022-08-11T07:31:56;3.37;;;2.03;;
19043;SDS011;9654;52.302;8.120;2022-08-11T07:34:30;2.53;;;1.90;;
19043;SDS011;9654;52.302;8.120;2022-08-11T07:37:03;4.00;;;1.80;;
19043;SDS011;9654;52.302;8.120;2022-08-11T07:39:38;6.60;;;1.80;;
19043;SDS011;9654;52.302;8.120;2022-08-11T07:42:09;2.83;;;1.70;;
19043;SDS011;9654;52.302;8.120;2022-08-11T07:44:36;2.58;;;1.60;;
19043;SDS011;9654;52.302;8.120;2022-08-11T07:47:20;6.15;;;1.52;;
19043;SDS011;9654;52.302;8.120;2022-08-11T07:50:05;2.40;;;1.50;;
19043;SDS011;9654;52.302;8.120;2022-08-11T07:52:52;3.78;;;1.70;;
19043;SDS011;9654;52.302;8.120;2022-08-11T07:55:21;1.52;;;1.30;;
19043;SDS011;9654;52.302;8.120;2022-08-11T07:57:49;3.45;;;1.67;;
19043;SDS011;9654;52.302;8.120;2022-08-11T08:00:35;4.65;;;2.42;;
19043;SDS011;9654;52.302;8.120;2022-08-11T08:03:20;3.78;;;2.00;;
19043;SDS011;9654;52.302;8.120;2022-08-11T08:06:05;2.42;;;1.88;;
19043;SDS011;9654;52.302;8.120;2022-08-11T08:08:50;5.68;;;1.85;;
19043;SDS011;9654;52.302;8.120;2022-08-11T08:11:37;3.75;;;2.00;;
19043;SDS011;9654;52.302;8.120;2022-08-11T08:14:21;1.80;;;1.70;;
19043;SDS011;9654;52.302;8.120;2022-08-11T08:17:07;3.20;;;1.60;;
19043;SDS011;9654;52.302;8.120;2022-08-11T08:19:53;4.15;;;2.08;;
19043;SDS011;9654;52.302;8.120;2022-08-11T08:22:20;2.47;;;1.75;;
19043;SDS011;9654;52.302;8.120;2022-08-11T08:24:47;6.25;;;2.35;;
19043;SDS011;9654;52.302;8.120;2022-08-11T08:27:17;2.70;;;1.70;;
19043;SDS011;9654;52.302;8.120;2022-08-11T08:29:45;3.53;;;1.98;;
19043;SDS011;9654;52.302;8.120;2022-08-11T08:32:30;2.92;;;1.88;;
19043;SDS011;9654;52.302;8.120;2022-08-11T08:34:59;2.47;;;1.95;;
19043;SDS011;9654;52.302;8.120;2022-08-11T08:37:27;5.55;;;1.90;;
19043;SDS011;9654;52.302;8.120;2022-08-11T08:39:54;3.90;;;2.47;;
19043;SDS011;9654;52.302;8.120;2022-08-11T08:42:24;7.15;;;2.40;;
19043;SDS011;9654;52.302;8.120;2022-08-11T08:44:55;4.72;;;2.20;;
19043;SDS011;9654;52.302;8.120;2022-08-11T08:47:27;2.40;;;1.80;;
19043;SDS011;9654;52.302;8.120;2022-08-11T08:49:57;3.70;;;1.98;;
19043;SDS011;9654;52.302;8.120;2022-08-11T08:52:26;5.72;;;2.03;;
19043;SDS011;9654;52.302;8.120;2022-08-11T08:54:59;2.47;;;2.10;;
19043;SDS011;9654;52.302;8.120;2022-08-11T08:57:30;4.80;;;1.90;;
19043;SDS011;9654;52.302;8.120;2022-08-11T08:59:59;2.75;;;1.90;;
19043;SDS011;9654;52.302;8.120;2022-08-11T09:02:27;2.50;;;1.73;;
19043;SDS011;9654;52.302;8.120;2022-08-11T09:04:54;1.83;;;1.73;;
19043;SDS011;9654;52.302;8.120;2022-08-11T09:07:22;3.30;;;1.60;;
19043;SDS011;9654;52.302;8.120;2022-08-11T09:09:51;2.10;;;1.95;;
19043;SDS011;9654;52.302;8.120;2022-08-11T09:12:21;2.08;;;1.88;;
19043;SDS011;9654;52.302;8.120;2022-08-11T09:14:54;3.00;;;2.15;;
19043;SDS011;9654;52.302;8.120;2022-08-11T09:17:29;1.80;;;1.70;;
19043;SDS011;9654;52.302;8.120;2022-08-11T09:19:59;4.03;;;1.98;;
19043;SDS011;9654;52.302;8.120;2022-08-11T09:22:32;1.85;;;1.75;;
19043;SDS011;9654;52.302;8.120;2022-08-11T09:25:18;4.03;;;1.85;;
19043;SDS011;9654;52.302;8.120;2022-08-11T09:28:04;2.13;;;1.50;;
19043;SDS011;9654;52.302;8.120;2022-08-11T09:30:36;1.75;;;1.65;;
19043;SDS011;9654;52.302;8.120;2022-08-11T09:33:05;2.42;;;1.67;;
19043;SDS011;9654;52.302;8.120;2022-08-11T09:35:33;6.45;;;1.80;;
19043;SDS011;9654;52.302;8.120;2022-08-11T09:38:03;2.20;;;1.90;;
19043;SDS011;9654;52.302;8.120;2022-08-11T09:40:49;2.30;;;1.60;;
19043;SDS011;9654;52.302;8.120;2022-08-11T09:43:17;2.95;;;1.88;;
19043;SDS011;9654;52.302;8.120;2022-08-11T09:46:04;3.47;;;1.77;;
19043;SDS011;9654;52.302;8.120;2022-08-11T09:48:34;2.50;;;1.83;;
19043;SDS011;9654;52.302;8.120;2022-08-11T09:51:03;6.97;;;2.05;;
19043;SDS011;9654;52.302;8.120;2022-08-11T09:53:34;3.70;;;1.70;;
19043;SDS011;9654;52.302;8.120;2022-08-11T09:56:03;2.67;;;1.55;;
19043;SDS011;9654;52.302;8.120;2022-08-11T09:58:46;3.45;;;1.75;;
19043;SDS011;9654;52.302;8.120;2022-08-11T10:01:15;3.17;;;1.58;;
19043;SDS011;9654;52.302;8.120;2022-08-11T10:03:51;1.30;;;1.30;;
19043;SDS011;9654;52.302;8.120;2022-08-11T10:06:21;4.28;;;1.58;;
19043;SDS011;9654;52.302;8.120;2022-08-11T10:09:03;1.88;;;1.48;;
19043;SDS011;9654;52.302;8.120;2022-08-11T10:11:40;3.42;;;1.55;;
19043;SDS011;9654;52.302;8.120;2022-08-11T10:14:15;2.85;;;1.50;;
19043;SDS011;9654;52.302;8.120;2022-08-11T10:17:07;2.45;;;1.98;;
19043;SDS011;9654;52.302;8.120;2022-08-11T10:19:35;3.58;;;1.60;;
19043;SDS011;9654;52.302;8.120;2022-08-11T10:22:04;2.03;;;1.85;;
19043;SDS011;9654;52.302;8.120;2022-08-11T10:24:49;5.68;;;1.60;;
19043;SDS011;9654;52.302;8.120;2022-08-11T10:27:35;2.33;;;1.90;;
19043;SDS011;9654;52.302;8.120;2022-08-11T10:30:05;7.60;;;1.73;;
19043;SDS011;9654;52.302;8.120;2022-08-11T10:32:51;3.95;;;1.70;;
19043;SDS011;9654;52.302;8.120;2022-08-11T10:35:35;6.25;;;1.65;;
19043;SDS011;9654;52.302;8.120;2022-08-11T10:38:03;3.03;;;1.50;;
19043;SDS011;9654;52.302;8.120;2022-08-11T10:40:30;3.25;;;1.80;;
19043;SDS011;9654;52.302;8.120;2022-08-11T10:42:59;1.60;;;1.50;;
19043;SDS011;9654;52.302;8.120;2022-08-11T10:45:37;4.70;;;1.90;;
19043;SDS011;9654;52.302;8.120;2022-08-11T10:48:29;3.55;;;1.75;;
19043;SDS011;9654;52.302;8.120;2022-08-11T10:51:02;3.13;;;1.63;;
19043;SDS011;9654;52.302;8.120;2022-08-11T10:53:42;3.47;;;1.70;;
19043;SDS011;9654;52.302;8.120;2022-08-11T10:56:28;4.32;;;1.90;;
19043;SDS011;9654;52.302;8.120;2022-08-11T10:59:14;3.63;;;1.77;;
19043;SDS011;9654;52.302;8.120;2022-08-11T11:01:42;3.33;;;2.08;;
19043;SDS011;9654;52.302;8.120;2022-08-11T11:04:12;3.53;;;1.77;;
19043;SDS011;9654;52.302;8.120;2022-08-11T11:06:45;2.67;;;1.65;;
19043;SDS011;9654;52.302;8.120;2022-08-11T11:09:17;1.70;;;1.60;;
19043;SDS011;9654;52.302;8.120;2022-08-11T11:11:49;3.25;;;2.00;;
19043;SDS011;9654;52.302;8.120;2022-08-11T11:14:36;9.80;;;1.92;;
19043;SDS011;9654;52.302;8.120;2022-08-11T11:17:28;3.53;;;1.80;;
19043;SDS011;9654;52.302;8.120;2022-08-11T11:20:18;2.85;;;1.85;;
19043;SDS011;9654;52.302;8.120;2022-08-11T11:22:49;2.17;;;1.98;;
19043;SDS011;9654;52.302;8.120;2022-08-11T11:25:23;3.20;;;1.85;;
19043;SDS011;9654;52.302;8.120;2022-08-11T11:28:15;2.00;;;1.52;;
19043;SDS011;9654;52.302;8.120;2022-08-11T11:30:55;9.00;;;1.77;;
19043;SDS011;9654;52.302;8.120;2022-08-11T11:33:36;3.47;;;1.75;;
19043;SDS011;9654;52.302;8.120;2022-08-11T11:36:18;2.95;;;1.80;;
19043;SDS011;9654;52.302;8.120;2022-08-11T11:38:51;3.72;;;1.52;;
19043;SDS011;9654;52.302;8.120;2022-08-11T11:41:20;3.65;;;1.90;;
19043;SDS011;9654;52.302;8.120;2022-08-11T11:43:51;1.73;;;1.60;;
19043;SDS011;9654;52.302;8.120;2022-08-11T11:46:19;2.70;;;1.42;;
19043;SDS011;9654;52.302;8.120;2022-08-11T11:48:46;1.70;;;1.52;;
19043;SDS011;9654;52.302;8.120;2022-08-11T11:51:13;2.20;;;1.70;;
19043;SDS011;9654;52.302;8.120;2022-08-11T11:53:42;1.40;;;1.30;;
19043;SDS011;9654;52.302;8.120;2022-08-11T11:56:11;1.77;;;1.33;;
19043;SDS011;9654;52.302;8.120;2022-08-11T11:58:38;2.55;;;1.70;;
19043;SDS011;9654;52.302;8.120;2022-08-11T12:01:23;3.35;;;1.55;;
19043;SDS011;9654;52.302;8.120;2022-08-11T12:03:51;1.92;;;1.70;;
19043;SDS011;9654;52.302;8.120;2022-08-11T12:06:20;1.48;;;1.38;;
19043;SDS011;9654;52.302;8.120;2022-08-11T12:08:50;4.82;;;1.58;;
19043;SDS011;9654;52.302;8.120;2022-08-11T12:11:20;5.07;;;1.33;;
19043;SDS011;9654;52.302;8.120;2022-08-11T12:14:06;4.22;;;1.30;;
19043;SDS011;9654;52.302;8.120;2022-08-11T12:16:35;1.90;;;1.30;;
19043;SDS011;9654;52.302;8.120;2022-08-11T12:19:04;1.45;;;1.35;;
19043;SDS011;9654;52.302;8.120;2022-08-11T12:21:33;2.10;;;1.52;;
19043;SDS011;9654;52.302;8.120;2022-08-11T12:24:03;1.63;;;1.30;;
19043;SDS011;9654;52.302;8.120;2022-08-11T12:26:48;3.05;;;1.45;;
19043;SDS011;9654;52.302;8.120;2022-08-11T12:29:48;3.60;;;1.38;;
19043;SDS011;9654;52.302;8.120;2022-08-11T12:32:16;1.23;;;1.10;;
19043;SDS011;9654;52.302;8.120;2022-08-11T12:34:44;1.65;;;1.45;;
19043;SDS011;9654;52.302;8.120;2022-08-11T12:37:12;2.92;;;1.50;;
19043;SDS011;9654;52.302;8.120;2022-08-11T12:39:43;2.80;;;1.48;;
19043;SDS011;9654;52.302;8.120;2022-08-11T12:42:31;6.32;;;1.60;;
19043;SDS011;9654;52.302;8.120;2022-08-11T12:45:17;5.53;;;1.20;;
19043;SDS011;9654;52.302;8.120;2022-08-11T12:47:56;1.85;;;1.75;;
19043;SDS011;9654;52.302;8.120;2022-08-11T12:50:45;2.78;;;1.60;;
19043;SDS011;9654;52.302;8.120;2022-08-11T12:53:34;2.13;;;1.27;;
19043;SDS011;9654;52.302;8.120;2022-08-11T12:56:06;2.05;;;1.60;;
19043;SDS011;9654;52.302;8.120;2022-08-11T12:58:52;3.67;;;1.40;;
19043;SDS011;9654;52.302;8.120;2022-08-11T13:01:37;1.25;;;1.23;;
19043;SDS011;9654;52.302;8.120;2022-08-11T13:04:21;2.15;;;1.42;;
19043;SDS011;9654;52.302;8.120;2022-08-11T13:07:06;1.80;;;1.70;;
19043;SDS011;9654;52.302;8.120;2022-08-11T13:09:34;2.05;;;1.20;;
19043;SDS011;9654;52.302;8.120;2022-08-11T13:12:03;1.63;;;1.48;;
19043;SDS011;9654;52.302;8.120;2022-08-11T13:14:48;4.60;;;1.45;;
19043;SDS011;9654;52.302;8.120;2022-08-11T13:17:15;3.60;;;1.48;;
19043;SDS011;9654;52.302;8.120;2022-08-11T13:19:48;1.60;;;1.50;;
19043;SDS011;9654;52.302;8.120;2022-08-11T13:22:17;1.65;;;1.55;;
19043;SDS011;9654;52.302;8.120;2022-08-11T13:24:45;2.42;;;1.30;;
19043;SDS011;9654;52.302;8.120;2022-08-11T13:27:15;2.45;;;1.33;;
19043;SDS011;9654;52.302;8.120;2022-08-11T13:29:44;6.00;;;1.50;;
19043;SDS011;9654;52.302;8.120;2022-08-11T13:32:13;1.58;;;1.48;;
19043;SDS011;9654;52.302;8.120;2022-08-11T13:34:41;2.58;;;1.33;;
19043;SDS011;9654;52.302;8.120;2022-08-11T13:37:09;3.90;;;1.42;;
19043;SDS011;9654;52.302;8.120;2022-08-11T13:39:39;1.58;;;1.48;;
19043;SDS011;9654;52.302;8.120;2022-08-11T13:42:11;1.85;;;1.35;;
19043;SDS011;9654;52.302;8.120;2022-08-11T13:44:41;3.58;;;1.30;;
19043;SDS011;9654;52.302;8.120;2022-08-11T13:47:10;19.15;;;3.20;;
19043;SDS011;9654;52.302;8.120;2022-08-11T13:49:39;5.07;;;2.03;;
19043;SDS011;9654;52.302;8.120;2022-08-11T13:52:09;3.80;;;1.75;;
19043;SDS011;9654;52.302;8.120;2022-08-11T13:54:38;3.58;;;1.33;;
19043;SDS011;9654;52.302;8.120;2022-08-11T13:57:07;3.08;;;1.30;;
19043;SDS011;9654;52.302;8.120;2022-08-11T13:59:36;2.70;;;1.55;;
19043;SDS011;9654;52.302;8.120;2022-08-11T14:02:06;3.20;;;1.40;;
19043;SDS011;9654;52.302;8.120;2022-08-11T14:04:38;3.17;;;1.20;;
19043;SDS011;9654;52.302;8.120;2022-08-11T14:07:09;4.72;;;1.20;;
19043;SDS011;9654;52.302;8.120;2022-08-11T14:09:39;1.27;;;1.15;;
19043;SDS011;9654;52.302;8.120;2022-08-11T14:12:09;1.60;;;1.50;;
19043;SDS011;9654;52.302;8.120;2022-08-11T14:14:58;2.85;;;1.45;;
19043;SDS011;9654;52.302;8.120;2022-08-11T14:17:30;1.30;;;1.20;;
19043;SDS011;9654;52.302;8.120;2022-08-11T14:19:58;1.90;;;1.00;;
19043;SDS011;9654;52.302;8.120;2022-08-11T14:22:30;2.45;;;1.42;;
19043;SDS011;9654;52.302;8.120;2022-08-11T14:24:56;2.78;;;0.98;;
19043;SDS011;9654;52.302;8.120;2022-08-11T14:27:24;2.40;;;1.25;;
19043;SDS011;9654;52.302;8.120;2022-08-11T14:29:55;2.78;;;1.50;;
19043;SDS011;9654;52.302;8.120;2022-08-11T14:32:23;2.50;;;1.20;;
19043;SDS011;9654;52.302;8.120;2022-08-11T14:34:52;1.40;;;1.30;;
19043;SDS011;9654;52.302;8.120;2022-08-11T14:37:20;4.07;;;1.85;;
19043;SDS011;9654;52.302;8.120;2022-08-11T14:39:49;5.60;;;1.20;;
19043;SDS011;9654;52.302;8.120;2022-08-11T14:42:19;3.72;;;1.40;;
19043;SDS011;9654;52.302;8.120;2022-08-11T14:45:06;3.60;;;1.38;;
19043;SDS011;9654;52.302;8.120;2022-08-11T14:48:08;2.40;;;1.40;;
19043;SDS011;9654;52.302;8.120;2022-08-11T14:50:36;3.83;;;1.30;;
19043;SDS011;9654;52.302;8.120;2022-08-11T14:53:05;2.30;;;1.42;;
19043;SDS011;9654;52.302;8.120;2022-08-11T14:55:35;2.97;;;1.30;;
19043;SDS011;9654;52.302;8.120;2022-08-11T14:58:21;1.50;;;1.40;;
19043;SDS011;9654;52.302;8.120;2022-08-11T15:00:51;3.03;;;1.25;;
19043;SDS011;9654;52.302;8.120;2022-08-11T15:03:19;2.15;;;1.30;;
19043;SDS011;9654;52.302;8.120;2022-08-11T15:05:49;1.58;;;1.52;;
19043;SDS011;9654;52.302;8.120;2022-08-11T15:08:17;4.38;;;1.50;;
19043;SDS011;9654;52.302;8.120;2022-08-11T15:11:05;3.13;;;1.60;;
19043;SDS011;9654;52.302;8.120;2022-08-11T15:13:54;2.22;;;1.75;;
19043;SDS011;9654;52.302;8.120;2022-08-11T15:16:21;2.63;;;1.20;;
19043;SDS011;9654;52.302;8.120;2022-08-11T15:19:06;4.38;;;1.75;;
19043;SDS011;9654;52.302;8.120;2022-08-11T15:21:36;6.40;;;1.60;;
19043;SDS011;9654;52.302;8.120;2022-08-11T15:24:20;5.13;;;1.60;;
19043;SDS011;9654;52.302;8.120;2022-08-11T15:26:48;1.92;;;1.65;;
19043;SDS011;9654;52.302;8.120;2022-08-11T15:29:35;1.92;;;1.45;;
19043;SDS011;9654;52.302;8.120;2022-08-11T15:32:21;2.95;;;1.58;;
19043;SDS011;9654;52.302;8.120;2022-08-11T15:35:08;2.83;;;1.40;;
19043;SDS011;9654;52.302;8.120;2022-08-11T15:37:55;1.45;;;1.20;;
19043;SDS011;9654;52.302;8.120;2022-08-11T15:40:27;2.83;;;1.30;;
19043;SDS011;9654;52.302;8.120;2022-08-11T15:43:15;2.13;;;1.30;;
19043;SDS011;9654;52.302;8.120;2022-08-11T15:46:06;2.17;;;1.20;;
19043;SDS011;9654;52.302;8.120;2022-08-11T15:48:38;2.15;;;1.17;;
19043;SDS011;9654;52.302;8.120;2022-08-11T15:51:11;1.40;;;1.30;;
19043;SDS011;9654;52.302;8.120;2022-08-11T15:53:49;3.53;;;1.60;;
19043;SDS011;9654;52.302;8.120;2022-08-11T15:56:18;1.50;;;1.40;;
19043;SDS011;9654;52.302;8.120;2022-08-11T15:58:49;3.20;;;1.50;;
19043;SDS011;9654;52.302;8.120;2022-08-11T16:01:35;1.60;;;1.50;;
19043;SDS011;9654;52.302;8.120;2022-08-11T16:04:23;3.22;;;1.40;;
19043;SDS011;9654;52.302;8.120;2022-08-11T16:06:52;2.63;;;1.40;;
19043;SDS011;9654;52.302;8.120;2022-08-11T16:09:26;1.80;;;1.13;;
19043;SDS011;9654;52.302;8.120;2022-08-11T16:11:58;8.85;;;1.40;;
19043;SDS011;9654;52.302;8.120;2022-08-11T16:14:29;1.85;;;1.27;;
19043;SDS011;9654;52.302;8.120;2022-08-11T16:17:16;2.63;;;1.30;;
19043;SDS011;9654;52.302;8.120;2022-08-11T16:19:45;1.90;;;1.27;;
19043;SDS011;9654;52.302;8.120;2022-08-11T16:22:18;1.90;;;1.23;;
19043;SDS011;9654;52.302;8.120;2022-08-11T16:24:55;2.92;;;1.10;;
19043;SDS011;9654;52.302;8.120;2022-08-11T16:27:23;1.85;;;1.20;;
19043;SDS011;9654;52.302;8.120;2022-08-11T16:29:52;1.90;;;1.73;;
19043;SDS011;9654;52.302;8.120;2022-08-11T16:32:21;1.88;;;1.23;;
19043;SDS011;9654;52.302;8.120;2022-08-11T16:34:52;2.72;;;1.27;;
19043;SDS011;9654;52.302;8.120;2022-08-11T16:37:40;0.95;;;0.95;;
19043;SDS011;9654;52.302;8.120;2022-08-11T16:40:26;1.45;;;1.27;;
19043;SDS011;9654;52.302;8.120;2022-08-11T16:42:54;3.20;;;1.30;;
19043;SDS011;9654;52.302;8.120;2022-08-11T16:45:40;1.25;;;1.20;;
19043;SDS011;9654;52.302;8.120;2022-08-11T16:48:26;1.52;;;1.33;;
19043;SDS011;9654;52.302;8.120;2022-08-11T16:50:56;3.35;;;1.45;;
19043;SDS011;9654;52.302;8.120;2022-08-11T16:53:25;1.83;;;1.25;;